Time;durP1;ratioP1;P1;durP2;ratioP2;P2;SDS_P1;SDS_P2;PMS_P1;PMS_P2;Temp;Humidity;BMP_temperature;BMP_pressure;BME280_temperature;BME280_humidity;BME280_pressure;Samples;Min_cycle;Max_cycle;Signal;HPM_P1;HPM_P2
2023/08/24 00:01:51;;;;;;;6.67;5.20;;;18.70;99.90;;;;;;491594;242;29308;-75
2023/08/24 00:03:52;;;;;;;6.50;4.87;;;18.60;99.90;;;;;;491600;241;29339;-75
2023/08/24 00:05:53;;;;;;;4.97;4.50;;;18.50;99.90;;;;;;491607;241;29255;-73
2023/08/24 00:07:55;;;;;;;7.00;6.30;;;18.50;99.90;;;;;;491612;241;29346;-72
2023/08/24 00:09:56;;;;;;;5.27;4.87;;;18.50;99.90;;;;;;491676;241;28709;-72
2023/08/24 00:11:57;;;;;;;6.20;5.10;;;18.40;99.90;;;;;;491612;241;28815;-75
2023/08/24 00:13:59;;;;;;;5.90;5.23;;;18.30;99.90;;;;;;491613;241;28816;-74
2023/08/24 00:16:00;;;;;;;6.00;5.03;;;18.30;99.90;;;;;;491603;241;28907;-74
2023/08/24 00:18:01;;;;;;;5.70;5.20;;;18.30;99.90;;;;;;491593;241;28941;-74
2023/08/24 00:20:04;;;;;;;6.13;5.23;;;18.40;99.90;;;;;;491604;241;28881;-74
2023/08/24 00:22:04;;;;;;;5.40;4.90;;;18.40;99.90;;;;;;491530;242;28807;-74
2023/08/24 00:24:05;;;;;;;5.17;4.77;;;18.40;99.90;;;;;;491604;241;28803;-74
2023/08/24 00:26:06;;;;;;;5.57;5.07;;;18.40;99.90;;;;;;491603;241;28803;-74
2023/08/24 00:28:07;;;;;;;7.90;5.20;;;18.40;99.90;;;;;;491601;242;29369;-74
2023/08/24 00:30:08;;;;;;;12.03;4.87;;;18.50;99.90;;;;;;491614;241;29258;-74
2023/08/24 00:32:10;;;;;;;5.60;5.10;;;18.50;99.90;;;;;;491622;241;29164;-74
2023/08/24 00:34:11;;;;;;;5.50;5.00;;;18.50;99.90;;;;;;491620;241;28807;-73
2023/08/24 00:36:12;;;;;;;6.60;4.83;;;18.50;99.90;;;;;;491603;241;28803;-74
2023/08/24 00:38:13;;;;;;;7.60;4.53;;;18.50;99.90;;;;;;491598;242;28953;-75
2023/08/24 00:40:15;;;;;;;5.77;4.80;;;18.50;99.90;;;;;;491609;241;28920;-74
2023/08/24 00:42:16;;;;;;;5.13;4.63;;;18.50;99.90;;;;;;491599;241;28894;-74
2023/08/24 00:44:17;;;;;;;4.43;4.13;;;18.50;99.90;;;;;;491601;242;28819;-75
2023/08/24 00:46:18;;;;;;;10.17;5.47;;;18.50;99.90;;;;;;491603;241;28827;-76
2023/08/24 00:48:20;;;;;;;7.67;5.27;;;18.50;99.90;;;;;;491615;241;28905;-76
2023/08/24 00:50:21;;;;;;;6.90;4.73;;;18.30;99.90;;;;;;491592;241;29293;-75
2023/08/24 00:52:23;;;;;;;6.00;5.40;;;18.30;99.90;;;;;;491604;241;29269;-78
2023/08/24 00:54:24;;;;;;;6.43;5.13;;;18.20;99.90;;;;;;491601;241;28835;-74
2023/08/24 00:56:26;;;;;;;7.83;5.67;;;18.10;99.90;;;;;;491597;241;28825;-75
2023/08/24 00:58:28;;;;;;;5.60;5.07;;;18.10;99.90;;;;;;491589;241;28926;-75
2023/08/24 01:00:29;;;;;;;6.10;4.90;;;18.10;99.90;;;;;;491604;241;28811;-75
2023/08/24 01:02:30;;;;;;;6.70;6.10;;;18.00;99.90;;;;;;491601;242;28819;-78
2023/08/24 01:04:32;;;;;;;5.87;5.13;;;18.10;99.90;;;;;;491601;241;28808;-74
2023/08/24 01:06:33;;;;;;;5.53;5.03;;;18.00;99.90;;;;;;491603;241;28712;-76
2023/08/24 01:08:34;;;;;;;5.63;5.07;;;18.00;99.90;;;;;;491599;241;28819;-73
2023/08/24 01:10:35;;;;;;;6.00;5.40;;;18.10;99.90;;;;;;491606;241;28823;-73
2023/08/24 01:12:37;;;;;;;5.93;5.10;;;18.10;99.90;;;;;;491610;241;28832;-73
2023/08/24 01:14:38;;;;;;;4.53;4.13;;;18.20;99.90;;;;;;491602;241;29284;-72
2023/08/24 01:16:40;;;;;;;6.13;4.80;;;18.20;99.90;;;;;;491602;241;29358;-72
2023/08/24 01:18:40;;;;;;;7.17;5.33;;;18.20;99.90;;;;;;491570;242;29346;-72
2023/08/24 01:20:42;;;;;;;4.83;4.37;;;18.20;99.90;;;;;;491612;241;29268;-73
2023/08/24 01:22:43;;;;;;;4.67;4.27;;;18.20;99.90;;;;;;491596;241;28791;-75
2023/08/24 01:24:44;;;;;;;5.93;4.20;;;18.20;99.90;;;;;;491596;241;28812;-75
2023/08/24 01:26:45;;;;;;;5.27;4.77;;;18.20;99.90;;;;;;491602;241;28803;-76
2023/08/24 01:28:47;;;;;;;4.83;4.43;;;18.10;99.90;;;;;;491603;242;28827;-72
2023/08/24 01:30:48;;;;;;;5.23;4.73;;;18.10;99.90;;;;;;491600;241;28811;-74
2023/08/24 01:32:49;;;;;;;5.10;4.63;;;18.10;99.90;;;;;;491599;241;28787;-75
2023/08/24 01:34:50;;;;;;;5.17;4.70;;;18.20;99.90;;;;;;491142;242;28785;-75
2023/08/24 01:36:52;;;;;;;5.30;4.43;;;18.10;99.90;;;;;;491602;242;28718;-72
2023/08/24 01:38:53;;;;;;;7.90;5.13;;;18.10;99.90;;;;;;491584;242;29389;-74
2023/08/24 01:40:54;;;;;;;5.43;4.93;;;18.00;99.90;;;;;;491597;241;29242;-75
2023/08/24 01:42:55;;;;;;;6.17;5.60;;;17.90;99.90;;;;;;491578;241;29349;-73
2023/08/24 01:44:58;;;;;;;5.97;4.83;;;17.90;99.90;;;;;;491608;241;29292;-75
2023/08/24 01:46:58;;;;;;;4.80;4.40;;;17.80;99.90;;;;;;491535;241;28819;-74
2023/08/24 01:48:59;;;;;;;4.97;4.57;;;17.80;99.90;;;;;;491593;241;28727;-75
2023/08/24 01:51:01;;;;;;;6.60;5.03;;;17.90;99.90;;;;;;491610;241;28891;-74
2023/08/24 01:53:02;;;;;;;4.90;4.50;;;17.80;99.90;;;;;;491604;241;29286;-75
2023/08/24 01:55:03;;;;;;;7.73;4.77;;;17.90;99.90;;;;;;491622;241;28811;-74
2023/08/24 01:57:04;;;;;;;4.90;4.50;;;17.90;99.90;;;;;;491604;241;28809;-75
2023/08/24 01:59:05;;;;;;;6.10;5.50;;;17.80;99.90;;;;;;491585;241;28814;-73
2023/08/24 02:01:07;;;;;;;7.20;5.03;;;17.80;99.90;;;;;;491570;241;28915;-76
2023/08/24 02:03:08;;;;;;;6.40;4.83;;;17.90;99.90;;;;;;491608;241;28825;-75
2023/08/24 02:05:09;;;;;;;8.03;5.20;;;17.80;99.90;;;;;;491588;241;29284;-75
2023/08/24 02:07:10;;;;;;;5.50;4.47;;;17.80;99.90;;;;;;491580;241;29282;-75
2023/08/24 02:09:12;;;;;;;5.27;4.77;;;17.80;99.90;;;;;;491553;241;29326;-75
2023/08/24 02:11:13;;;;;;;4.90;4.50;;;17.80;99.90;;;;;;491594;241;28889;-75
2023/08/24 02:13:14;;;;;;;5.27;4.80;;;17.90;99.90;;;;;;491582;242;29249;-75
2023/08/24 02:15:16;;;;;;;5.00;4.60;;;17.90;99.90;;;;;;491587;242;28926;-75
2023/08/24 02:17:17;;;;;;;5.10;4.60;;;17.90;99.90;;;;;;491585;241;28834;-72
2023/08/24 02:19:18;;;;;;;6.80;4.67;;;17.90;99.90;;;;;;491573;241;28798;-76
2023/08/24 02:21:19;;;;;;;4.87;4.47;;;17.90;99.90;;;;;;491587;242;28925;-75
2023/08/24 02:23:21;;;;;;;5.60;4.57;;;17.90;99.90;;;;;;491600;241;28815;-74
2023/08/24 02:25:22;;;;;;;4.87;4.47;;;17.90;99.90;;;;;;491587;241;28830;-75
2023/08/24 02:27:23;;;;;;;5.83;4.70;;;17.80;99.90;;;;;;491605;241;28819;-72
2023/08/24 02:29:24;;;;;;;4.70;4.30;;;17.80;99.90;;;;;;491605;241;29267;-73
2023/08/24 02:31:26;;;;;;;5.40;4.70;;;17.80;99.90;;;;;;491601;241;29346;-73
2023/08/24 02:33:27;;;;;;;6.03;4.90;;;17.80;99.90;;;;;;491605;241;29258;-75
2023/08/24 02:35:28;;;;;;;7.53;5.40;;;17.80;99.90;;;;;;491586;241;28721;-72
2023/08/24 02:37:30;;;;;;;6.63;5.47;;;17.80;99.90;;;;;;491612;241;28818;-73
2023/08/24 02:39:32;;;;;;;5.17;4.67;;;17.80;99.90;;;;;;491621;241;29263;-74
2023/08/24 02:41:33;;;;;;;4.47;4.17;;;17.80;99.90;;;;;;491631;241;29168;-74
2023/08/24 02:43:34;;;;;;;8.63;5.20;;;17.80;99.90;;;;;;491616;242;28918;-75
2023/08/24 02:45:35;;;;;;;4.73;4.33;;;17.80;99.90;;;;;;491627;241;28813;-74
2023/08/24 02:47:37;;;;;;;6.50;4.50;;;17.90;99.90;;;;;;491631;241;28909;-75
2023/08/24 02:49:38;;;;;;;5.47;3.93;;;18.30;99.90;;;;;;491620;242;28811;-76
2023/08/24 02:51:39;;;;;;;4.90;4.40;;;18.60;99.90;;;;;;491622;241;28823;-75
2023/08/24 02:53:40;;;;;;;8.67;4.60;;;18.90;99.90;;;;;;491629;241;28811;-75
2023/08/24 02:55:42;;;;;;;7.23;3.80;;;19.10;99.90;;;;;;491617;241;28900;-75
2023/08/24 02:57:43;;;;;;;4.40;4.00;;;19.30;99.90;;;;;;491629;241;28815;-74
2023/08/24 02:59:44;;;;;;;4.33;3.93;;;19.40;99.90;;;;;;491612;241;29287;-74
2023/08/24 03:01:45;;;;;;;5.23;3.70;;;19.50;99.90;;;;;;491616;241;29263;-74
2023/08/24 03:03:47;;;;;;;3.73;3.37;;;19.50;99.90;;;;;;491625;241;29341;-76
2023/08/24 03:05:48;;;;;;;5.30;3.53;;;19.70;99.90;;;;;;491620;241;29231;-75
2023/08/24 03:07:49;;;;;;;3.87;3.40;;;19.90;99.90;;;;;;491627;241;28818;-75
2023/08/24 03:09:50;;;;;;;5.00;3.60;;;19.80;99.90;;;;;;491619;241;28787;-74
2023/08/24 03:11:52;;;;;;;6.47;4.40;;;20.00;99.90;;;;;;491625;241;28887;-73
2023/08/24 03:13:53;;;;;;;3.83;3.50;;;19.90;99.90;;;;;;491610;241;28813;-74
2023/08/24 03:15:54;;;;;;;11.80;3.83;;;19.90;99.90;;;;;;491619;241;28703;-74
2023/08/24 03:17:55;;;;;;;7.37;4.07;;;19.90;99.90;;;;;;491615;241;28937;-75
2023/08/24 03:19:57;;;;;;;3.60;3.30;;;19.90;99.90;;;;;;491594;242;28827;-75
2023/08/24 03:21:58;;;;;;;4.93;3.97;;;19.80;99.90;;;;;;491614;241;28836;-76
2023/08/24 03:23:59;;;;;;;4.73;3.53;;;19.80;99.90;;;;;;491602;241;29357;-75
2023/08/24 03:26:00;;;;;;;4.17;3.63;;;19.80;99.90;;;;;;491600;242;29320;-75
2023/08/24 03:28:02;;;;;;;7.07;3.90;;;19.80;99.90;;;;;;491614;241;29315;-74
2023/08/24 03:30:04;;;;;;;4.40;3.57;;;19.80;99.90;;;;;;491596;242;29275;-74
2023/08/24 03:32:04;;;;;;;4.10;3.70;;;19.80;99.90;;;;;;491578;241;28831;-74
2023/08/24 03:34:05;;;;;;;8.43;3.93;;;19.80;99.90;;;;;;491609;241;28906;-75
2023/08/24 03:36:07;;;;;;;9.53;3.93;;;19.90;99.90;;;;;;491625;241;28824;-74
2023/08/24 03:38:08;;;;;;;5.00;4.00;;;19.90;99.90;;;;;;491610;241;28729;-74
2023/08/24 03:40:09;;;;;;;5.33;3.63;;;19.90;99.90;;;;;;491581;242;28803;-74
2023/08/24 03:42:10;;;;;;;6.40;3.97;;;19.90;99.90;;;;;;491614;241;28914;-74
2023/08/24 03:44:12;;;;;;;4.33;3.93;;;20.00;99.90;;;;;;491620;241;28827;-74
2023/08/24 03:46:13;;;;;;;4.60;3.90;;;20.00;99.90;;;;;;491607;242;28815;-76
2023/08/24 03:48:14;;;;;;;4.80;3.73;;;20.00;99.90;;;;;;491581;242;28823;-75
2023/08/24 03:50:15;;;;;;;6.17;4.23;;;20.10;99.90;;;;;;491605;241;29328;-73
2023/08/24 03:52:17;;;;;;;5.70;3.50;;;20.10;99.90;;;;;;491610;242;29287;-75
2023/08/24 03:54:18;;;;;;;8.30;3.83;;;20.10;99.90;;;;;;491600;241;29266;-74
2023/08/24 03:56:19;;;;;;;3.63;3.33;;;20.00;99.90;;;;;;491602;241;28825;-74
2023/08/24 03:58:20;;;;;;;4.90;3.60;;;20.00;99.90;;;;;;491617;241;28835;-74
2023/08/24 04:00:22;;;;;;;4.63;3.77;;;20.00;99.90;;;;;;491506;241;28886;-75
2023/08/24 04:02:23;;;;;;;5.83;3.87;;;19.90;99.90;;;;;;491610;241;28781;-75
2023/08/24 04:04:24;;;;;;;4.57;4.10;;;20.00;99.90;;;;;;491588;241;28914;-73
2023/08/24 04:06:25;;;;;;;6.13;3.57;;;20.00;99.90;;;;;;491611;241;28807;-75
2023/08/24 04:08:27;;;;;;;7.53;3.70;;;20.00;99.90;;;;;;491610;241;28811;-74
2023/08/24 04:10:28;;;;;;;7.33;3.67;;;20.00;99.90;;;;;;491610;241;28827;-73
2023/08/24 04:12:30;;;;;;;6.03;3.80;;;20.00;99.90;;;;;;491606;241;28888;-74
2023/08/24 04:14:30;;;;;;;7.83;3.83;;;20.00;99.90;;;;;;491573;241;29295;-74
2023/08/24 04:16:32;;;;;;;4.63;3.67;;;20.00;99.90;;;;;;491608;241;29338;-73
2023/08/24 04:18:33;;;;;;;4.80;3.70;;;20.00;99.90;;;;;;491621;241;29254;-75
2023/08/24 04:20:34;;;;;;;3.83;3.43;;;20.00;99.90;;;;;;491603;241;29334;-74
2023/08/24 04:22:35;;;;;;;8.97;4.67;;;20.00;99.90;;;;;;491602;241;28898;-74
2023/08/24 04:24:37;;;;;;;4.63;3.60;;;19.90;99.90;;;;;;491613;241;28848;-74
2023/08/24 04:26:38;;;;;;;6.40;3.70;;;20.10;99.90;;;;;;491608;241;28902;-74
2023/08/24 04:28:39;;;;;;;7.97;3.93;;;20.10;99.90;;;;;;491614;241;28812;-74
2023/08/24 04:30:40;;;;;;;4.00;3.60;;;20.20;99.90;;;;;;491602;241;28887;-74
2023/08/24 04:32:42;;;;;;;4.63;3.77;;;20.20;99.90;;;;;;491609;242;28804;-74
2023/08/24 04:34:43;;;;;;;4.50;4.10;;;20.20;99.90;;;;;;491604;241;28831;-74
2023/08/24 04:36:44;;;;;;;6.07;3.70;;;20.10;99.90;;;;;;491598;242;28815;-79
2023/08/24 04:38:45;;;;;;;3.90;3.50;;;20.10;99.90;;;;;;491605;241;28866;-74
2023/08/24 04:40:47;;;;;;;4.40;3.90;;;20.00;99.90;;;;;;491590;241;29368;-74
2023/08/24 04:42:48;;;;;;;7.47;4.80;;;19.90;99.90;;;;;;491600;241;29337;-74
2023/08/24 04:44:49;;;;;;;8.00;5.00;;;19.70;99.90;;;;;;491599;241;29276;-75
2023/08/24 04:46:50;;;;;;;6.40;4.00;;;19.50;99.90;;;;;;491613;241;28883;-75
2023/08/24 04:48:52;;;;;;;5.30;4.10;;;19.30;99.90;;;;;;491609;241;28808;-76
2023/08/24 04:50:53;;;;;;;4.23;3.83;;;19.20;99.90;;;;;;491603;241;28795;-73
2023/08/24 04:52:54;;;;;;;4.27;3.90;;;19.10;99.90;;;;;;491588;241;28795;-76
2023/08/24 04:54:56;;;;;;;4.70;4.20;;;19.10;99.90;;;;;;491606;241;28812;-75
2023/08/24 04:56:57;;;;;;;4.53;4.10;;;19.10;99.90;;;;;;491604;242;28815;-73
2023/08/24 04:59:00;;;;;;;4.33;3.93;;;19.10;99.90;;;;;;491603;242;28835;-74
2023/08/24 05:00:59;;;;;;;4.97;3.90;;;19.00;99.90;;;;;;491498;241;28902;-74
2023/08/24 05:03:00;;;;;;;7.60;4.60;;;18.90;99.90;;;;;;491593;241;28903;-74
2023/08/24 05:05:02;;;;;;;6.67;4.37;;;18.90;99.90;;;;;;491605;241;29241;-75
2023/08/24 05:07:03;;;;;;;5.40;4.90;;;18.90;99.90;;;;;;491601;241;29337;-77
2023/08/24 05:09:04;;;;;;;6.20;5.23;;;18.90;99.90;;;;;;491610;242;29263;-73
2023/08/24 05:11:05;;;;;;;5.80;5.30;;;19.00;99.90;;;;;;491604;241;28849;-74
2023/08/24 05:13:07;;;;;;;7.30;5.70;;;18.90;99.90;;;;;;491602;241;28801;-75
2023/08/24 05:15:08;;;;;;;6.43;5.33;;;18.90;99.90;;;;;;491617;241;28733;-74
2023/08/24 05:17:09;;;;;;;7.13;5.50;;;18.80;99.90;;;;;;491604;241;28820;-74
2023/08/24 05:19:10;;;;;;;6.37;5.10;;;18.90;99.90;;;;;;491568;241;28795;-74
2023/08/24 05:21:12;;;;;;;7.13;5.13;;;18.90;99.90;;;;;;491594;241;28907;-74
2023/08/24 05:23:13;;;;;;;9.63;4.73;;;18.90;99.90;;;;;;491607;241;28820;-74
2023/08/24 05:25:16;;;;;;;7.63;4.87;;;18.80;99.90;;;;;;491596;241;28884;-75
2023/08/24 05:27:16;;;;;;;4.70;4.30;;;18.80;99.90;;;;;;491520;241;28823;-73
2023/08/24 05:29:17;;;;;;;8.57;4.60;;;18.80;99.90;;;;;;491602;241;29256;-74
2023/08/24 05:31:18;;;;;;;7.33;5.20;;;18.70;99.90;;;;;;491605;241;29344;-74
2023/08/24 05:33:19;;;;;;;9.07;6.27;;;18.60;99.90;;;;;;491563;241;29347;-74
2023/08/24 05:35:22;;;;;;;7.50;5.73;;;18.50;99.90;;;;;;491596;241;29281;-75
2023/08/24 05:37:22;;;;;;;7.83;5.23;;;18.50;99.90;;;;;;491409;241;28896;-74
2023/08/24 05:39:23;;;;;;;12.73;6.00;;;18.40;99.90;;;;;;491586;241;28892;-75
2023/08/24 05:41:24;;;;;;;6.37;4.30;;;18.50;99.90;;;;;;491592;241;28826;-74
2023/08/24 05:43:25;;;;;;;6.43;4.90;;;18.60;99.90;;;;;;491631;237;28795;-75
2023/08/24 05:45:27;;;;;;;6.10;4.70;;;18.80;99.90;;;;;;491600;242;28809;-76
2023/08/24 05:47:28;;;;;;;5.23;4.73;;;18.90;99.90;;;;;;491598;241;28798;-73
2023/08/24 05:49:29;;;;;;;5.13;4.63;;;18.90;99.90;;;;;;491585;242;28807;-74
2023/08/24 05:51:30;;;;;;;10.77;5.77;;;19.00;99.90;;;;;;491599;242;28916;-74
2023/08/24 05:53:32;;;;;;;5.33;4.30;;;19.00;99.90;;;;;;491601;241;29170;-74
2023/08/24 05:55:33;;;;;;;6.23;5.37;;;19.10;99.90;;;;;;491605;241;29335;-73
2023/08/24 05:57:34;;;;;;;9.27;5.00;;;19.00;99.90;;;;;;491592;242;28896;-73
2023/08/24 05:59:35;;;;;;;5.87;4.80;;;19.10;99.90;;;;;;491573;241;28817;-74
2023/08/24 06:01:41;;;;;;;6.03;5.40;;;19.10;99.90;;;;;;491586;241;28795;-75
2023/08/24 06:03:41;;;;;;;8.90;5.87;;;19.10;99.90;;;;;;491544;242;28824;-74
2023/08/24 06:05:42;;;;;;;17.93;5.67;;;19.10;99.90;;;;;;491558;241;28805;-73
2023/08/24 06:07:43;;;;;;;7.07;5.03;;;19.10;99.90;;;;;;491601;241;28831;-74
2023/08/24 06:09:45;;;;;;;9.70;4.90;;;19.10;99.90;;;;;;491603;241;28813;-73
2023/08/24 06:11:46;;;;;;;10.23;5.07;;;19.20;99.90;;;;;;491593;241;29372;-74
2023/08/24 06:13:47;;;;;;;9.20;4.80;;;19.30;99.90;;;;;;491593;241;29354;-74
2023/08/24 06:15:48;;;;;;;8.67;4.60;;;19.50;99.90;;;;;;491591;241;29261;-74
2023/08/24 06:17:50;;;;;;;5.43;4.90;;;19.50;99.90;;;;;;491597;241;28804;-74
2023/08/24 06:19:51;;;;;;;6.33;4.83;;;19.60;99.90;;;;;;491574;241;28831;-74
2023/08/24 06:21:52;;;;;;;5.33;4.83;;;19.60;99.90;;;;;;491597;241;28922;-74
2023/08/24 06:23:53;;;;;;;9.67;4.97;;;19.60;99.90;;;;;;491594;241;28842;-74
2023/08/24 06:25:55;;;;;;;5.77;4.80;;;19.70;99.90;;;;;;491597;241;28836;-74
2023/08/24 06:27:56;;;;;;;4.83;4.17;;;19.90;99.90;;;;;;491587;241;28802;-74
2023/08/24 06:29:57;;;;;;;6.90;4.37;;;20.00;99.90;;;;;;491551;242;28811;-74
2023/08/24 06:31:58;;;;;;;6.23;3.83;;;20.20;99.90;;;;;;491579;241;28815;-74
2023/08/24 06:34:00;;;;;;;4.87;4.20;;;20.30;99.90;;;;;;491585;242;28841;-74
2023/08/24 06:36:01;;;;;;;8.10;4.70;;;20.40;99.90;;;;;;491552;241;29297;-74
2023/08/24 06:38:02;;;;;;;5.50;4.00;;;20.40;99.90;;;;;;491587;241;29272;-73
2023/08/24 06:40:04;;;;;;;6.30;4.20;;;20.50;99.90;;;;;;491577;241;29346;-74
2023/08/24 06:42:05;;;;;;;6.00;4.40;;;20.50;99.90;;;;;;491564;241;29278;-74
2023/08/24 06:44:06;;;;;;;5.60;4.27;;;20.60;99.90;;;;;;491593;241;28926;-74
2023/08/24 06:46:10;;;;;;;5.67;3.70;;;20.70;99.90;;;;;;491586;241;28826;-74
2023/08/24 06:48:08;;;;;;;6.60;4.20;;;20.90;99.90;;;;;;491428;242;28822;-75
2023/08/24 06:50:10;;;;;;;4.90;4.00;;;21.10;99.90;;;;;;491584;241;28923;-74
2023/08/24 06:52:11;;;;;;;4.80;4.33;;;21.20;99.90;;;;;;491588;241;28830;-76
2023/08/24 06:54:14;;;;;;;7.93;4.60;;;21.10;99.90;;;;;;491585;241;28822;-74
2023/08/24 06:56:14;;;;;;;9.23;4.27;;;21.20;99.90;;;;;;491475;241;28805;-75
2023/08/24 06:58:15;;;;;;;4.57;4.17;;;21.30;99.90;;;;;;491520;241;29250;-76
2023/08/24 07:00:16;;;;;;;8.10;4.10;;;21.40;99.90;;;;;;491565;241;29252;-76
2023/08/24 07:02:17;;;;;;;9.40;4.10;;;21.40;99.90;;;;;;491572;241;29352;-76
2023/08/24 07:04:18;;;;;;;5.20;3.70;;;21.40;99.90;;;;;;491583;241;28824;-75
2023/08/24 07:06:20;;;;;;;7.10;4.47;;;21.50;99.90;;;;;;491582;241;28807;-76
2023/08/24 07:08:21;;;;;;;4.43;3.70;;;21.50;99.90;;;;;;491602;241;28911;-74
2023/08/24 07:10:22;;;;;;;4.90;4.17;;;21.50;99.90;;;;;;491478;241;28806;-75
2023/08/24 07:12:23;;;;;;;5.43;3.47;;;21.40;99.90;;;;;;491590;241;28799;-75
2023/08/24 07:14:25;;;;;;;7.07;4.13;;;21.30;99.90;;;;;;491581;241;28854;-74
2023/08/24 07:16:26;;;;;;;4.53;4.13;;;21.30;99.90;;;;;;491575;241;28848;-75
2023/08/24 07:18:27;;;;;;;4.30;3.90;;;21.20;99.90;;;;;;491583;241;28819;-74
2023/08/24 07:20:28;;;;;;;5.63;4.50;;;21.10;99.90;;;;;;491574;241;28839;-75
2023/08/24 07:22:30;;;;;;;8.90;5.40;;;21.10;99.90;;;;;;491582;241;29337;-74
2023/08/24 07:24:33;;;;;;;7.40;4.23;;;20.90;99.90;;;;;;491594;241;29273;-74
2023/08/24 07:26:33;;;;;;;7.30;4.57;;;20.90;99.90;;;;;;491499;241;29269;-75
2023/08/24 07:28:34;;;;;;;6.77;3.97;;;20.90;99.90;;;;;;491615;241;28931;-77
2023/08/24 07:30:36;;;;;;;6.10;5.50;;;20.90;99.90;;;;;;491600;241;28803;-74
2023/08/24 07:32:37;;;;;;;9.10;5.00;;;20.90;99.90;;;;;;491603;241;28891;-74
2023/08/24 07:34:38;;;;;;;7.43;4.70;;;21.00;99.90;;;;;;491622;241;28723;-75
2023/08/24 07:36:39;;;;;;;7.77;4.53;;;21.10;99.90;;;;;;491599;242;28809;-74
2023/08/24 07:38:41;;;;;;;7.33;5.03;;;21.20;99.90;;;;;;491611;241;28808;-75
2023/08/24 07:40:42;;;;;;;7.10;4.53;;;21.20;99.90;;;;;;491599;241;28813;-74
2023/08/24 07:42:43;;;;;;;7.43;5.40;;;21.30;99.90;;;;;;491593;242;29276;-74
2023/08/24 07:44:45;;;;;;;7.50;5.00;;;21.30;99.90;;;;;;491587;241;29253;-75
2023/08/24 07:46:46;;;;;;;6.80;4.87;;;21.40;99.90;;;;;;491569;242;29289;-74
2023/08/24 07:48:47;;;;;;;8.30;4.77;;;21.60;99.90;;;;;;491498;241;29279;-75
2023/08/24 07:50:48;;;;;;;10.30;4.90;;;21.90;99.90;;;;;;491602;241;28927;-75
2023/08/24 07:52:49;;;;;;;6.20;4.60;;;21.90;99.90;;;;;;491595;241;28824;-75
2023/08/24 07:54:51;;;;;;;5.20;4.53;;;22.20;99.90;;;;;;491589;242;28810;-75
2023/08/24 07:56:52;;;;;;;7.00;4.40;;;22.40;99.90;;;;;;491604;241;28843;-74
2023/08/24 07:58:53;;;;;;;5.23;4.10;;;22.30;99.90;;;;;;491568;242;28897;-75
2023/08/24 08:00:54;;;;;;;9.80;4.57;;;22.50;99.90;;;;;;491597;241;28815;-74
2023/08/24 08:02:57;;;;;;;9.83;4.20;;;22.80;99.90;;;;;;491584;241;28820;-75
2023/08/24 08:04:58;;;;;;;7.50;4.87;;;23.00;99.90;;;;;;491603;241;28815;-75
2023/08/24 08:06:59;;;;;;;6.00;4.57;;;22.90;99.90;;;;;;491601;241;28949;-74
2023/08/24 08:09:00;;;;;;;6.40;4.30;;;22.90;99.90;;;;;;491585;241;28823;-74
2023/08/24 08:11:02;;;;;;;7.13;4.43;;;23.00;99.90;;;;;;491606;241;28727;-75
2023/08/24 08:13:03;;;;;;;6.37;4.47;;;23.00;99.90;;;;;;491594;241;28931;-73
2023/08/24 08:15:04;;;;;;;6.30;4.23;;;23.00;99.90;;;;;;491606;241;28914;-75
2023/08/24 08:17:05;;;;;;;8.53;3.87;;;23.00;99.90;;;;;;491599;241;28819;-73
2023/08/24 08:19:07;;;;;;;4.77;4.10;;;23.00;99.90;;;;;;491601;241;28934;-75
2023/08/24 08:21:08;;;;;;;5.23;4.33;;;23.20;99.90;;;;;;491589;241;29364;-77
2023/08/24 08:23:09;;;;;;;7.60;3.83;;;23.30;99.90;;;;;;491589;242;29424;-75
2023/08/24 08:25:12;;;;;;;5.10;3.87;;;23.40;99.90;;;;;;491600;241;29245;-75
2023/08/24 08:27:12;;;;;;;5.80;4.00;;;23.30;99.90;;;;;;491543;242;28839;-74
2023/08/24 08:29:13;;;;;;;4.43;3.87;;;23.40;99.90;;;;;;491605;241;28803;-75
2023/08/24 08:31:14;;;;;;;8.30;4.10;;;23.50;99.90;;;;;;491607;241;28790;-76
2023/08/24 08:33:15;;;;;;;4.40;4.00;;;23.50;99.90;;;;;;491599;241;28938;-75
2023/08/24 08:35:17;;;;;;;6.37;4.20;;;23.50;99.90;;;;;;491589;241;28811;-75
2023/08/24 08:37:18;;;;;;;5.00;4.30;;;23.60;99.90;;;;;;491598;241;28823;-76
2023/08/24 08:39:19;;;;;;;5.30;3.83;;;23.60;99.90;;;;;;491600;242;28817;-75
2023/08/24 08:41:20;;;;;;;12.80;4.07;;;23.60;99.90;;;;;;491640;241;28825;-76
2023/08/24 08:43:22;;;;;;;4.30;3.77;;;23.60;99.90;;;;;;491589;241;29387;-75
2023/08/24 08:45:23;;;;;;;4.87;4.07;;;23.70;99.90;;;;;;491584;241;29267;-74
2023/08/24 08:47:24;;;;;;;3.73;3.40;;;23.70;99.90;;;;;;491584;241;29272;-75
2023/08/24 08:49:25;;;;;;;3.90;3.53;;;23.70;99.90;;;;;;491599;241;29270;-74
2023/08/24 08:51:27;;;;;;;4.27;3.70;;;23.80;99.90;;;;;;491570;241;28815;-74
2023/08/24 08:53:28;;;;;;;7.93;3.60;;;23.90;99.90;;;;;;491492;241;28834;-74
2023/08/24 08:55:30;;;;;;;4.40;3.97;;;24.00;99.90;;;;;;491606;241;28829;-75
2023/08/24 08:57:30;;;;;;;4.20;3.80;;;24.10;99.90;;;;;;491527;242;28826;-75
2023/08/24 08:59:32;;;;;;;4.87;3.80;;;24.10;99.90;;;;;;491562;241;28811;-74
2023/08/24 09:01:33;;;;;;;5.47;3.90;;;24.20;99.90;;;;;;491578;241;29293;-75
2023/08/24 09:03:34;;;;;;;5.33;3.80;;;24.30;99.90;;;;;;491643;241;28739;-74
2023/08/24 09:05:35;;;;;;;5.60;4.23;;;24.40;99.90;;;;;;491601;241;28817;-74
2023/08/24 09:07:37;;;;;;;5.30;4.07;;;24.40;99.90;;;;;;491587;241;28822;-76
2023/08/24 09:09:39;;;;;;;4.00;3.50;;;24.60;99.90;;;;;;491577;241;29254;-75
2023/08/24 09:11:42;;;;;;;4.73;3.40;;;24.60;99.90;;;;;;491587;241;29251;-76
2023/08/24 09:13:41;;;;;;;6.97;3.40;;;24.80;99.90;;;;;;491473;241;29285;-76
2023/08/24 09:15:42;;;;;;;4.33;3.53;;;24.90;99.90;;;;;;491580;241;28883;-76
2023/08/24 09:17:44;;;;;;;6.43;3.10;;;24.90;99.90;;;;;;491575;241;28796;-75
2023/08/24 09:19:45;;;;;;;7.83;3.50;;;25.00;99.90;;;;;;491582;242;28885;-75
2023/08/24 09:21:46;;;;;;;5.73;3.37;;;25.20;99.90;;;;;;491557;241;28793;-75
2023/08/24 09:23:47;;;;;;;6.93;3.40;;;25.30;99.90;;;;;;491581;241;28795;-75
2023/08/24 09:25:49;;;;;;;6.57;3.90;;;25.40;99.90;;;;;;491583;241;28804;-75
2023/08/24 09:27:50;;;;;;;5.17;3.20;;;25.50;99.90;;;;;;491566;242;28808;-75
2023/08/24 09:29:51;;;;;;;4.77;3.10;;;25.60;99.90;;;;;;491580;241;28906;-75
2023/08/24 09:31:53;;;;;;;4.33;3.50;;;25.50;99.90;;;;;;492690;241;29264;-74
2023/08/24 09:33:54;;;;;;;5.80;3.43;;;25.50;99.90;;;;;;492591;241;29198;-74
2023/08/24 09:36:01;;;;;;;4.67;3.43;;;25.50;99.90;;;;;;492590;241;29378;-74
2023/08/24 09:37:56;;;;;;;4.40;3.30;;;25.50;99.90;;;;;;491689;241;28806;-74
2023/08/24 09:39:57;;;;;;;4.33;3.03;;;25.40;99.90;;;;;;491582;241;28803;-74
2023/08/24 09:41:59;;;;;;;3.70;3.27;;;25.30;99.90;;;;;;491553;241;28814;-75
2023/08/24 09:44:00;;;;;;;6.27;3.00;;;25.30;99.90;;;;;;491585;242;28806;-75
2023/08/24 09:46:03;;;;;;;4.20;2.97;;;25.30;99.90;;;;;;491516;242;28798;-75
2023/08/24 09:48:02;;;;;;;4.00;3.40;;;25.40;99.90;;;;;;491509;241;28917;-74
2023/08/24 09:50:04;;;;;;;3.77;3.23;;;25.50;99.90;;;;;;491573;241;28815;-74
2023/08/24 09:52:05;;;;;;;3.47;3.13;;;25.60;99.90;;;;;;491560;242;28818;-74
2023/08/24 09:54:08;;;;;;;3.60;3.30;;;25.70;99.90;;;;;;491485;241;28796;-75
2023/08/24 09:56:07;;;;;;;4.50;2.90;;;25.80;99.90;;;;;;491474;242;29328;-76
2023/08/24 09:58:09;;;;;;;5.97;3.13;;;25.90;99.90;;;;;;491606;240;29306;-76
2023/08/24 10:00:16;;;;;;;4.13;3.50;;;26.10;99.90;;;;;;491559;241;29284;-75
2023/08/24 10:02:14;;;;;;;5.27;3.40;;;26.20;99.90;;;;;;491211;242;28916;-78
2023/08/24 10:04:15;;;;;;;3.77;2.97;;;26.30;99.90;;;;;;491594;241;28799;-74
2023/08/24 10:06:17;;;;;;;4.63;3.30;;;26.30;99.90;;;;;;491330;241;28802;-75
2023/08/24 10:08:18;;;;;;;4.33;3.30;;;26.40;99.90;;;;;;491576;241;28794;-77
2023/08/24 10:10:19;;;;;;;4.57;3.30;;;26.60;99.90;;;;;;491456;241;28920;-74
2023/08/24 10:12:20;;;;;;;8.50;2.80;;;26.60;99.90;;;;;;491568;241;28901;-75
2023/08/24 10:14:22;;;;;;;4.03;3.20;;;26.50;99.90;;;;;;491575;241;28910;-74
2023/08/24 10:16:23;;;;;;;4.50;3.70;;;26.50;99.90;;;;;;491574;241;28830;-75
2023/08/24 10:18:26;;;;;;;7.30;3.53;;;26.50;99.90;;;;;;491576;242;28814;-74
2023/08/24 10:20:25;;;;;;;3.20;2.90;;;26.50;99.90;;;;;;491513;241;29386;-75
2023/08/24 10:22:27;;;;;;;3.20;2.60;;;26.50;99.90;;;;;;491393;242;29239;-75
2023/08/24 10:24:28;;;;;;;5.07;2.77;;;26.50;99.90;;;;;;491579;241;29247;-74
2023/08/24 10:26:29;;;;;;;3.03;2.77;;;26.50;99.90;;;;;;491645;241;28813;-75
2023/08/24 10:28:30;;;;;;;4.03;3.20;;;26.50;99.90;;;;;;491474;240;28714;-74
2023/08/24 10:30:32;;;;;;;8.83;3.17;;;26.60;99.90;;;;;;491605;240;28902;-75